Adak Island, Alaska
Current Conditions -  °F | °C
As of 9:56 AM on Saturday 25 Oct 2014 (Local Time) from PADK Reporting Station
Overcast Overcast  
Wind Chill:   Ceiling: 5000
Heat Index:   Visibility: 10mi
Dew Point:   Wind: 13mph
Humidity: 76%   Direction: 260°W
Pressure: 30.06"   Gusts: NA
Location:  51.88°N, 176.65°W
Report Text: PADK 251856Z AUTO 26011KT 10SM FEW026 OVC050 06/02 A3006 RMK AO1
Loading
Personal Weather Stations






























Interactive Weather Map New forecast layout! Learn more

10-Day Weather Forecast

Advertisements
Track Severe Weather on mobile